Forside
METAR-TAF:

METAR-TAF

Lufthavne :

Semey, Kasakhstan

Breddekreds: 50-21-05N, længdekreds: 080-14-04E, højde: 232 m

Aktuelle vejr

Denne rapport blev lavet for 14 timer og 50 minutter siden, kl. 11:30 UTC
Vind 4 kt fra vest
Temperatur -5°C
Fugtighed 93%
Tryk 1040 hPa
Sigt: 6000 m
Brudte skyer i en højde af 4000 ft, Cumulonimbus.
let snebyger

METAR: UASS 161130Z 28002MPS 6000 -SHSN BKN040CB M05/M06 Q1040 R26/421052 NOSIG RMK QFE761/1015

Tid: 08:20 (02:20 UTC)

Vejrudsigter

Denne rapport blev lavet for 15 timer og 20 minutter siden, kl. 11:00 UTC
Foreløbig gælder fra 16 på 12 UTC til 16 på 21 UTC
Vind 10 kt fra vest
Sigt: 5000 m
Brudte skyer i en højde af 3000 ft, Cumulonimbus.
let snebyger
Midlertidig
fra 16 på 12 UTC til 16 på 18 UTC
Sigt: 1000 m
Brudte skyer i en højde af 400 ft
Brudte skyer i en højde af 2000 ft, Cumulonimbus.
snebyger, dis

TAF: UASS 161100Z 1612/1621 28005MPS 5000 -SHSN BKN030CB TEMPO 1612/1618 1000 SHSN BR BKN004 BKN020CB

Vejrobservationer og prognoser fra mere end 4000 lufthavne (METAR og TAF).

De gule og røde prikker repræsenterer de meteorologiske stationer.

Flyt musen over at se navnet på stationen.

Så klik over at se vejr observationer og prognoser.

At skifte det kort: Klik på de grønne knapper med et sort kors for at zoome ind; på den grønne knap med en bindestreg for at zoome ud; eller på de grønne pile for tilstødende kort.


METAR-TAF: